createdAt,value
2024-03-24T00:01:10.711Z,100075.08
2024-03-24T00:03:41.482Z,100071.55
2024-03-24T00:06:12.236Z,100068.01
2024-03-24T00:08:43.041Z,100068.13
2024-03-24T00:11:13.800Z,100059.77
2024-03-24T00:13:44.606Z,100052.03
2024-03-24T00:16:15.472Z,100053.65
2024-03-24T00:18:46.157Z,100045.04
2024-03-24T00:21:17.012Z,100041.10
2024-03-24T00:23:47.725Z,100041.57
2024-03-24T00:26:18.580Z,100042.22
2024-03-24T00:28:49.257Z,100037.83
2024-03-24T00:31:19.974Z,100031.53
2024-03-24T00:33:50.751Z,100029.43
2024-03-24T00:36:21.499Z,100030.41
2024-03-24T00:38:52.290Z,100019.80
2024-03-24T00:41:23.033Z,100011.29
2024-03-24T00:43:53.553Z,100013.32
2024-03-24T00:46:24.316Z,100009.64
2024-03-24T00:48:55.080Z,100010.20
2024-03-24T00:51:25.920Z,100002.35
2024-03-24T00:53:56.617Z,99994.92
2024-03-24T00:56:27.477Z,99997.87
2024-03-24T00:58:57.887Z,99991.26
2024-03-24T01:01:28.658Z,99989.89
2024-03-24T01:03:59.437Z,99990.69
2024-03-24T01:06:30.405Z,99985.52
2024-03-24T01:09:01.085Z,99988.39
2024-03-24T01:11:31.748Z,99979.42
2024-03-24T01:14:02.530Z,99971.67
2024-03-24T01:16:33.313Z,99966.13
2024-03-24T01:19:04.090Z,99966.17
2024-03-24T01:21:34.833Z,99961.23
2024-03-24T01:24:05.626Z,99963.99
2024-03-24T01:26:36.365Z,99955.36
2024-03-24T01:29:07.158Z,99949.41
2024-03-24T01:31:37.916Z,99944.75
2024-03-24T01:34:08.687Z,99940.64
2024-03-24T01:36:39.421Z,99940.64
2024-03-24T01:39:09.962Z,99937.38
2024-03-24T01:41:40.592Z,99927.07
2024-03-24T01:44:11.394Z,99925.62
2024-03-24T01:46:42.144Z,99918.71
2024-03-24T01:49:12.661Z,99917.11
2024-03-24T01:51:43.402Z,99912.45
2024-03-24T01:54:14.178Z,99907.25
2024-03-24T01:56:44.323Z,99906.96
2024-03-24T01:59:15.093Z,99907.25
2024-03-24T02:01:45.866Z,99899.41
2024-03-24T02:04:16.681Z,99897.87
2024-03-24T02:06:47.397Z,99898.41
2024-03-24T02:09:17.923Z,99894.23
2024-03-24T02:11:48.674Z,99896.51
2024-03-24T02:14:18.841Z,99895.68
2024-03-24T02:16:49.354Z,99901.17
2024-03-24T02:19:20.174Z,99910.72
2024-03-24T02:21:50.881Z,99901.93
2024-03-24T02:24:21.666Z,99895.51
2024-03-24T02:26:52.429Z,99885.31
2024-03-24T02:29:23.249Z,99878.62
2024-03-24T02:31:53.791Z,99871.55
2024-03-24T02:34:24.593Z,99859.20
2024-03-24T02:36:55.270Z,99851.33
2024-03-24T02:39:26.069Z,99843.00
2024-03-24T02:41:56.834Z,99836.51
2024-03-24T02:44:27.651Z,99834.70
2024-03-24T02:46:58.427Z,99824.58
2024-03-24T02:49:29.223Z,99824.07
2024-03-24T02:52:00.116Z,99819.68
2024-03-24T02:54:30.449Z,99817.43
2024-03-24T02:57:01.209Z,99807.09
2024-03-24T02:59:32.001Z,99807.10
2024-03-24T03:02:02.549Z,99805.91
2024-03-24T03:04:33.307Z,99797.59
2024-03-24T03:07:04.216Z,99789.94
2024-03-24T03:09:34.636Z,99792.63
2024-03-24T03:12:05.078Z,99792.61
2024-03-24T03:14:35.911Z,99789.67
2024-03-24T03:17:06.679Z,99785.71
2024-03-24T03:19:37.240Z,99783.91
2024-03-24T03:22:07.692Z,99786.78
2024-03-24T03:24:38.157Z,99785.44
2024-03-24T03:27:08.920Z,99779.27
2024-03-24T03:29:39.716Z,99771.55
2024-03-24T03:32:10.382Z,99764.68
2024-03-24T03:34:41.151Z,99759.55
2024-03-24T03:37:11.645Z,99762.03
2024-03-24T03:39:42.106Z,99770.84
2024-03-24T03:42:12.590Z,99771.65
2024-03-24T03:44:43.125Z,99768.41
2024-03-24T03:47:13.566Z,99769.45
2024-03-24T03:49:44.301Z,99766.83
2024-03-24T03:52:15.109Z,99769.97
2024-03-24T03:54:45.593Z,99773.35
2024-03-24T03:57:16.369Z,99771.09
2024-03-24T03:59:47.154Z,99777.85
2024-03-24T04:02:17.301Z,99781.53
2024-03-24T04:04:48.072Z,99775.96
2024-03-24T04:07:18.817Z,99775.33
2024-03-24T04:09:49.413Z,99774.59
2024-03-24T04:12:19.800Z,99773.36
2024-03-24T04:14:50.259Z,99768.49
2024-03-24T04:17:20.982Z,99770.99
2024-03-24T04:19:51.750Z,99775.78
2024-03-24T04:22:22.504Z,99769.31
2024-03-24T04:24:53.242Z,99766.69
2024-03-24T04:27:23.709Z,99767.14
2024-03-24T04:29:54.482Z,99767.01
2024-03-24T04:32:25.227Z,99754.99
2024-03-24T04:34:55.983Z,99756.73
2024-03-24T04:37:26.732Z,99757.47
2024-03-24T04:39:57.469Z,99758.67
2024-03-24T04:42:28.213Z,99755.95
2024-03-24T04:44:58.986Z,99748.75
2024-03-24T04:47:29.736Z,99755.09
2024-03-24T04:50:00.501Z,99749.51
2024-03-24T04:52:31.202Z,99749.70
2024-03-24T04:55:01.987Z,99747.07
2024-03-24T04:57:32.839Z,99746.14
2024-03-24T05:00:03.510Z,99749.39
2024-03-24T05:02:34.255Z,99751.73
2024-03-24T05:05:05.009Z,99753.26
2024-03-24T05:07:35.750Z,99757.13
2024-03-24T05:10:06.514Z,99756.49
2024-03-24T05:12:37.263Z,99759.11
2024-03-24T05:15:08.063Z,99751.83
2024-03-24T05:17:38.785Z,99763.56
2024-03-24T05:20:09.543Z,99759.06
2024-03-24T05:22:40.274Z,99761.13
2024-03-24T05:25:11.055Z,99762.70
2024-03-24T05:27:41.791Z,99766.49
2024-03-24T05:30:12.578Z,99773.38
2024-03-24T05:32:43.297Z,99772.09
2024-03-24T05:35:14.051Z,99776.83
2024-03-24T05:37:44.799Z,99775.37
2024-03-24T05:40:15.582Z,99775.91
2024-03-24T05:42:46.408Z,99773.65
2024-03-24T05:45:17.050Z,99772.52
2024-03-24T05:47:47.764Z,99779.50
2024-03-24T05:50:18.535Z,99778.17
2024-03-24T05:52:49.288Z,99777.16
2024-03-24T05:55:19.999Z,99772.37
2024-03-24T05:57:50.713Z,99777.25
2024-03-24T06:00:21.471Z,99778.62
2024-03-24T06:02:52.342Z,99779.30
2024-03-24T06:05:22.978Z,99778.74
2024-03-24T06:07:53.708Z,99779.95
2024-03-24T06:10:24.494Z,99779.49
2024-03-24T06:12:55.263Z,99781.70
2024-03-24T06:15:26.001Z,99782.96
2024-03-24T06:17:56.746Z,99785.94
2024-03-24T06:20:27.478Z,99785.28
2024-03-24T06:22:58.216Z,99781.29
2024-03-24T06:25:28.992Z,99778.16
2024-03-24T06:27:59.776Z,99775.68
2024-03-24T06:30:30.460Z,99775.06
2024-03-24T06:33:01.202Z,99772.94
2024-03-24T06:35:31.948Z,99773.08
2024-03-24T06:38:02.668Z,99777.08
2024-03-24T06:40:33.430Z,99778.22
2024-03-24T06:43:04.171Z,99780.96
2024-03-24T06:45:34.947Z,99783.99
2024-03-24T06:48:05.645Z,99784.24
2024-03-24T06:50:36.382Z,99783.14
2024-03-24T06:53:07.098Z,99783.57
2024-03-24T06:55:37.854Z,99783.97
2024-03-24T06:58:08.566Z,99786.66
2024-03-24T07:00:39.308Z,99783.71
2024-03-24T07:03:10.068Z,99780.36
2024-03-24T07:05:40.754Z,99785.59
2024-03-24T07:08:11.457Z,99782.01
2024-03-24T07:10:42.219Z,99782.48
2024-03-24T07:13:12.907Z,99786.63
2024-03-24T07:15:43.642Z,99783.80
2024-03-24T07:18:14.376Z,99782.59
2024-03-24T07:20:45.081Z,99783.25
2024-03-24T07:23:15.800Z,99785.07
2024-03-24T07:25:46.532Z,99779.49
2024-03-24T07:28:17.244Z,99776.69
2024-03-24T07:30:47.974Z,99789.62
2024-03-24T07:33:18.702Z,99794.21
2024-03-24T07:35:49.400Z,99791.90
2024-03-24T07:38:20.116Z,99785.52
2024-03-24T07:40:50.845Z,99778.61
2024-03-24T07:43:21.579Z,99776.03
2024-03-24T07:45:51.928Z,99777.74
2024-03-24T07:48:22.404Z,99776.85
2024-03-24T07:50:52.425Z,99771.49
2024-03-24T07:53:22.838Z,99772.25
2024-03-24T07:55:53.643Z,99770.27
2024-03-24T07:58:24.434Z,99773.56
2024-03-24T08:00:55.205Z,99773.55
2024-03-24T08:03:25.943Z,99769.88
2024-03-24T08:05:56.647Z,99776.46
2024-03-24T08:08:26.846Z,99767.59
2024-03-24T08:10:56.942Z,99772.22
2024-03-24T08:13:28.608Z,99770.52
2024-03-24T08:15:58.385Z,99769.01
2024-03-24T08:18:29.020Z,99773.78
2024-03-24T08:20:59.717Z,99766.03
2024-03-24T08:23:30.394Z,99764.37
2024-03-24T08:26:01.090Z,99763.20
2024-03-24T08:28:31.757Z,99771.80
2024-03-24T08:31:02.510Z,99758.48
2024-03-24T08:33:33.150Z,99761.61
2024-03-24T08:36:03.828Z,99757.08
2024-03-24T08:38:34.514Z,99754.14
2024-03-24T08:41:05.200Z,99753.74
2024-03-24T08:43:35.871Z,99745.65
2024-03-24T08:46:06.568Z,99751.55
2024-03-24T08:48:42.158Z,99743.01
2024-03-24T08:51:07.918Z,99730.94
2024-03-24T08:53:38.557Z,99724.83
2024-03-24T08:56:09.277Z,99730.73
2024-03-24T08:58:39.896Z,99729.64
2024-03-24T09:01:10.569Z,99720.45
2024-03-24T09:03:41.310Z,99730.75
2024-03-24T09:06:12.036Z,99735.96
2024-03-24T09:08:42.578Z,99800.96
2024-03-24T09:11:12.896Z,99802.40
2024-03-24T09:13:43.612Z,99782.87
2024-03-24T09:16:14.293Z,99783.97
2024-03-24T09:18:45.143Z,99783.99
2024-03-24T09:21:15.818Z,99779.95
2024-03-24T09:23:46.247Z,99780.47
2024-03-24T09:26:16.529Z,99779.79
2024-03-24T09:28:47.283Z,99780.45
2024-03-24T09:31:18.054Z,99784.84
2024-03-24T09:33:48.939Z,99781.46
2024-03-24T09:36:19.528Z,99784.89
2024-03-24T09:38:49.955Z,99779.99
2024-03-24T09:41:20.030Z,99776.71
2024-03-24T09:43:50.492Z,99776.99
2024-03-24T09:46:20.874Z,99781.00
2024-03-24T09:48:50.914Z,99784.22
2024-03-24T09:51:21.045Z,99780.36
2024-03-24T09:53:51.134Z,99771.98
2024-03-24T09:56:21.854Z,99775.76
2024-03-24T09:58:52.521Z,99770.74
2024-03-24T10:01:23.244Z,99764.37
2024-03-24T10:03:53.444Z,99771.15
2024-03-24T10:06:23.676Z,99759.74
2024-03-24T10:08:54.668Z,99771.02
2024-03-24T10:11:25.458Z,99769.42
2024-03-24T10:13:56.017Z,99767.16
2024-03-24T10:16:26.745Z,99758.80
2024-03-24T10:18:57.484Z,99754.31
2024-03-24T10:21:27.997Z,99758.20
2024-03-24T10:23:58.652Z,99749.52
2024-03-24T10:26:29.382Z,99759.41
2024-03-24T10:28:59.989Z,99757.74
2024-03-24T10:31:30.785Z,99758.72
2024-03-24T10:34:01.402Z,99758.66
2024-03-24T10:36:32.126Z,99754.19
2024-03-24T10:39:02.722Z,99748.45
2024-03-24T10:41:33.423Z,99746.16
2024-03-24T10:44:04.284Z,99747.19
2024-03-24T10:46:34.788Z,99743.96
2024-03-24T10:49:05.446Z,99742.11
2024-03-24T10:51:36.133Z,99738.61
2024-03-24T10:54:06.806Z,99731.52
2024-03-24T10:56:37.600Z,99727.07
2024-03-24T10:59:11.244Z,99727.61
2024-03-24T11:01:38.865Z,99730.44
2024-03-24T11:04:09.596Z,99728.19
2024-03-24T11:06:39.934Z,99732.53
2024-03-24T11:09:10.651Z,99729.31
2024-03-24T11:11:41.294Z,99735.06
2024-03-24T11:14:11.892Z,99731.65
2024-03-24T11:16:42.604Z,99731.82
2024-03-24T11:19:13.439Z,99734.78
2024-03-24T11:21:43.905Z,99737.67
2024-03-24T11:24:14.679Z,99729.85
2024-03-24T11:26:45.237Z,99732.43
2024-03-24T11:29:15.915Z,99724.57
2024-03-24T11:31:46.581Z,99729.39
2024-03-24T11:34:17.271Z,99720.78
2024-03-24T11:36:48.014Z,99728.11
2024-03-24T11:39:18.554Z,99731.71
2024-03-24T11:41:49.258Z,99718.98
2024-03-24T11:44:19.998Z,99720.79
2024-03-24T11:46:50.600Z,99718.24
2024-03-24T11:49:21.255Z,99710.32
2024-03-24T11:51:52.001Z,99701.88
2024-03-24T11:54:22.624Z,99691.28
2024-03-24T11:56:53.376Z,99685.82
2024-03-24T11:59:23.997Z,99697.45
2024-03-24T12:01:54.601Z,99694.92
2024-03-24T12:04:25.314Z,99696.54
2024-03-24T12:06:55.891Z,99704.26
2024-03-24T12:09:26.503Z,99707.07
2024-03-24T12:11:57.243Z,99706.25
2024-03-24T12:14:28.207Z,99702.29
2024-03-24T12:16:58.504Z,99697.72
2024-03-24T12:19:29.128Z,99692.61
2024-03-24T12:21:59.806Z,99681.88
2024-03-24T12:24:30.399Z,99678.03
2024-03-24T12:27:01.184Z,99675.27
2024-03-24T12:29:31.811Z,99667.92
2024-03-24T12:32:02.357Z,99653.87
2024-03-24T12:34:33.028Z,99661.91
2024-03-24T12:37:03.671Z,99658.74
2024-03-24T12:39:34.418Z,99679.11
2024-03-24T12:42:04.976Z,99679.71
2024-03-24T12:44:35.597Z,99695.78
2024-03-24T12:47:06.309Z,99689.21
2024-03-24T12:49:57.789Z,99688.91
2024-03-24T12:52:07.687Z,99694.30
2024-03-24T12:54:38.310Z,99699.39
2024-03-24T12:57:08.943Z,99690.46
2024-03-24T12:59:39.548Z,99696.34
2024-03-24T13:02:10.235Z,99684.53
2024-03-24T13:04:40.887Z,99680.09
2024-03-24T13:07:11.575Z,99680.03
2024-03-24T13:09:42.169Z,99680.00
2024-03-24T13:12:13.052Z,99675.35
2024-03-24T13:14:43.464Z,99674.77
2024-03-24T13:17:14.184Z,99661.61
2024-03-24T13:19:44.797Z,99659.10
2024-03-24T13:22:15.482Z,99660.53
2024-03-24T13:24:46.071Z,99657.46
2024-03-24T13:27:16.775Z,99665.21
2024-03-24T13:29:47.395Z,99656.23
2024-03-24T13:32:18.090Z,99657.75
2024-03-24T13:34:48.723Z,99658.90
2024-03-24T13:37:19.800Z,99657.01
2024-03-24T13:39:50.051Z,99658.91
2024-03-24T13:42:21.470Z,99657.17
2024-03-24T13:44:51.357Z,99663.82
2024-03-24T13:47:22.039Z,99669.33
2024-03-24T13:49:52.706Z,99681.66
2024-03-24T13:52:23.472Z,99675.14
2024-03-24T13:54:54.005Z,99672.25
2024-03-24T13:57:24.729Z,99662.52
2024-03-24T13:59:55.317Z,99667.84
2024-03-24T14:02:26.023Z,99667.50
2024-03-24T14:04:56.067Z,99666.56
2024-03-24T14:07:26.249Z,99669.45
2024-03-24T14:09:56.798Z,99661.39
2024-03-24T14:12:27.308Z,99661.37
2024-03-24T14:14:57.874Z,99650.12
2024-03-24T14:17:28.606Z,99650.79
2024-03-24T14:19:59.201Z,99650.42
2024-03-24T14:22:29.944Z,99643.94
2024-03-24T14:25:03.833Z,99644.16
2024-03-24T14:27:31.225Z,99643.02
2024-03-24T14:30:01.854Z,99645.90
2024-03-24T14:32:32.547Z,99662.45
2024-03-24T14:35:03.191Z,99656.32
2024-03-24T14:37:33.870Z,99658.87
2024-03-24T14:40:04.609Z,99674.70
2024-03-24T14:42:35.190Z,99664.31
2024-03-24T14:45:05.814Z,99672.51
2024-03-24T14:50:07.004Z,99680.67
2024-03-24T14:52:37.471Z,99676.90
2024-03-24T14:55:08.163Z,99680.95
2024-03-24T14:57:38.812Z,99677.07
2024-03-24T15:00:09.448Z,99681.46
2024-03-24T15:02:40.072Z,99683.66
2024-03-24T15:05:10.765Z,99695.89
2024-03-24T15:07:41.388Z,99692.01
2024-03-24T15:10:12.073Z,99697.80
2024-03-24T15:12:42.418Z,99688.39
2024-03-24T15:15:13.062Z,99676.60
2024-03-24T15:17:43.710Z,99689.62
2024-03-24T15:20:14.394Z,99695.23
2024-03-24T15:22:45.014Z,99711.58
2024-03-24T15:25:15.672Z,99714.76
2024-03-24T15:27:46.300Z,99714.22
2024-03-24T15:30:16.663Z,99714.30
2024-03-24T15:32:47.308Z,99727.05
2024-03-24T15:35:17.981Z,99728.98
2024-03-24T15:37:48.609Z,99738.05
2024-03-24T15:40:19.240Z,99726.28
2024-03-24T15:42:49.866Z,99736.29
2024-03-24T15:45:20.568Z,99739.39
2024-03-24T15:47:51.172Z,99745.70
2024-03-24T15:50:21.870Z,99749.64
2024-03-24T15:52:52.475Z,99756.04
2024-03-24T15:55:23.147Z,99763.14
2024-03-24T15:57:53.927Z,99765.85
2024-03-24T16:00:24.453Z,99776.68
2024-03-24T16:02:55.085Z,99772.70
2024-03-24T16:05:25.792Z,99775.01
2024-03-24T16:07:56.406Z,99778.89
2024-03-24T16:10:27.088Z,99794.49
2024-03-24T16:12:57.834Z,99798.13
2024-03-24T16:15:28.453Z,99815.45
2024-03-24T16:17:59.113Z,99823.91
2024-03-24T16:20:29.938Z,99822.98
2024-03-24T16:23:00.596Z,99834.05
2024-03-24T16:25:31.037Z,99817.11
2024-03-24T16:28:01.906Z,99812.48
2024-03-24T16:30:32.449Z,99817.05
2024-03-24T16:33:03.155Z,99829.22
2024-03-24T16:35:33.944Z,99835.89
2024-03-24T16:38:04.558Z,99833.72
2024-03-24T16:40:35.338Z,99843.39
2024-03-24T16:43:05.967Z,99841.88
2024-03-24T16:45:36.689Z,99860.27
2024-03-24T16:48:07.361Z,99862.31
2024-03-24T16:50:38.115Z,99866.39
2024-03-24T16:53:08.774Z,99873.37
2024-03-24T16:55:39.506Z,99871.02
2024-03-24T16:58:10.204Z,99882.23
2024-03-24T17:00:40.920Z,99874.67
2024-03-24T17:03:11.694Z,99885.44
2024-03-24T17:05:42.519Z,99892.37
2024-03-24T17:08:13.293Z,99886.33
2024-03-24T17:10:44.198Z,99892.31
2024-03-24T17:13:14.803Z,99897.21
2024-03-24T17:15:45.684Z,99903.71
2024-03-24T17:18:16.270Z,99913.50
2024-03-24T17:20:47.010Z,99907.30
2024-03-24T17:23:17.685Z,99917.34
2024-03-24T17:25:48.422Z,99914.54
2024-03-24T17:28:19.094Z,99913.31
2024-03-24T17:30:50.227Z,99922.25
2024-03-24T17:33:20.521Z,99918.41
2024-03-24T17:35:51.275Z,99921.45
2024-03-24T17:38:21.952Z,99924.75
2024-03-24T17:40:52.687Z,99940.93
2024-03-24T17:43:23.408Z,99936.07
2024-03-24T17:45:54.119Z,99935.96
2024-03-24T17:48:24.919Z,99945.52
2024-03-24T17:50:55.581Z,99946.31
2024-03-24T17:53:26.246Z,99956.23
2024-03-24T17:55:56.998Z,99955.91
2024-03-24T17:58:27.749Z,99958.88
2024-03-24T18:00:58.404Z,99967.15
2024-03-24T18:03:29.199Z,99969.46
2024-03-24T18:05:59.916Z,99973.01
2024-03-24T18:08:30.550Z,99984.08
2024-03-24T18:11:01.300Z,99989.85
2024-03-24T18:13:32.049Z,99994.36
2024-03-24T18:16:02.769Z,99998.22
2024-03-24T18:18:33.432Z,100007.66
2024-03-24T18:21:04.231Z,100005.56
2024-03-24T18:23:34.946Z,100012.44
2024-03-24T18:26:05.701Z,100013.85
2024-03-24T18:28:39.674Z,100022.44
2024-03-24T18:31:07.177Z,100021.82
2024-03-24T18:33:37.892Z,100021.11
2024-03-24T18:36:08.650Z,100039.69
2024-03-24T18:38:39.319Z,100047.32
2024-03-24T18:41:10.074Z,100047.97
2024-03-24T18:43:40.822Z,100055.94
2024-03-24T18:46:11.503Z,100053.67
2024-03-24T18:48:42.239Z,100055.94
2024-03-24T18:51:12.982Z,100060.76
2024-03-24T18:53:43.681Z,100061.72
2024-03-24T18:56:14.414Z,100062.10
2024-03-24T18:58:45.140Z,100061.27
2024-03-24T19:01:15.602Z,100062.11
2024-03-24T19:03:46.353Z,100059.31
2024-03-24T19:06:17.031Z,100056.63
2024-03-24T19:08:47.728Z,100061.31
2024-03-24T19:11:18.190Z,100066.32
2024-03-24T19:16:19.577Z,100069.44
2024-03-24T19:18:50.302Z,100070.81
2024-03-24T19:21:21.041Z,100076.76
2024-03-24T19:23:51.703Z,100080.14
2024-03-24T19:26:22.445Z,100086.44
2024-03-24T19:28:53.158Z,100086.71
2024-03-24T19:31:23.950Z,100088.12
2024-03-24T19:33:54.719Z,100089.78
2024-03-24T19:36:25.550Z,100096.98
2024-03-24T19:38:56.303Z,100103.18
2024-03-24T19:41:27.123Z,100100.04
2024-03-24T19:43:57.552Z,100105.95
2024-03-24T19:46:28.317Z,100105.27
2024-03-24T19:48:59.082Z,100110.63
2024-03-24T19:51:29.872Z,100113.30
2024-03-24T19:54:00.562Z,100116.54
2024-03-24T19:56:31.459Z,100123.76
2024-03-24T19:59:02.007Z,100127.93
2024-03-24T20:01:32.735Z,100130.80
2024-03-24T20:04:03.590Z,100127.64
2024-03-24T20:06:33.918Z,100129.14
2024-03-24T20:09:04.399Z,100129.73
2024-03-24T20:11:35.037Z,100132.89
2024-03-24T20:14:05.459Z,100131.16
2024-03-24T20:16:36.120Z,100129.41
2024-03-24T20:19:06.815Z,100126.03
2024-03-24T20:21:37.574Z,100132.70
2024-03-24T20:24:08.274Z,100132.28
2024-03-24T20:26:39.015Z,100138.47
2024-03-24T20:29:09.707Z,100133.94
2024-03-24T20:31:40.452Z,100147.51
2024-03-24T20:34:11.161Z,100136.57
2024-03-24T20:36:41.903Z,100144.27
2024-03-24T20:39:12.699Z,100145.96
2024-03-24T20:41:43.407Z,100144.09
2024-03-24T20:44:14.122Z,100150.15
2024-03-24T20:46:44.624Z,100153.67
2024-03-24T20:49:15.320Z,100156.20
2024-03-24T20:51:46.138Z,100159.61
2024-03-24T20:54:16.766Z,100171.43
2024-03-24T20:56:47.365Z,100167.73
2024-03-24T20:59:17.950Z,100174.48
2024-03-24T21:01:48.737Z,100172.05
2024-03-24T21:04:19.618Z,100173.41
2024-03-24T21:06:50.179Z,100178.36
2024-03-24T21:09:20.878Z,100181.20
2024-03-24T21:11:51.619Z,100180.54
2024-03-24T21:14:22.321Z,100187.31
2024-03-24T21:16:53.115Z,100187.73
2024-03-24T21:19:23.771Z,100188.85
2024-03-24T21:21:54.539Z,100185.71
2024-03-24T21:24:25.210Z,100186.29
2024-03-24T21:26:56.049Z,100182.57
2024-03-24T21:29:26.654Z,100189.20
2024-03-24T21:31:57.393Z,100188.09
2024-03-24T21:34:28.112Z,100187.46
2024-03-24T21:36:58.845Z,100183.96
2024-03-24T21:39:29.535Z,100192.03
2024-03-24T21:42:00.250Z,100186.53
2024-03-24T21:44:30.966Z,100190.15
2024-03-24T21:47:01.818Z,100188.51
2024-03-24T21:49:32.490Z,100191.96
2024-03-24T21:52:03.172Z,100190.17
2024-03-24T21:54:33.873Z,100193.95
2024-03-24T21:57:04.642Z,100195.83
2024-03-24T21:59:35.444Z,100205.67
2024-03-24T22:02:06.263Z,100202.57
2024-03-24T22:04:36.630Z,100201.79
2024-03-24T22:07:18.454Z,100204.63
2024-03-24T22:09:38.205Z,100203.61
2024-03-24T22:12:09.026Z,100201.86
2024-03-24T22:14:39.832Z,100202.59
2024-03-24T22:17:10.624Z,100208.49
2024-03-24T22:19:42.089Z,100207.78
2024-03-24T22:22:12.263Z,100206.40
2024-03-24T22:24:42.348Z,100210.47
2024-03-24T22:27:12.338Z,100214.26
2024-03-24T22:29:43.194Z,100219.85
2024-03-24T22:32:14.190Z,100211.99
2024-03-24T22:34:44.943Z,100214.76
2024-03-24T22:37:15.708Z,100226.24
2024-03-24T22:39:46.342Z,100221.58
2024-03-24T22:42:17.094Z,100221.73
2024-03-24T22:44:47.798Z,100223.89
2024-03-24T22:47:18.558Z,100220.63
2024-03-24T22:49:49.264Z,100236.58
2024-03-24T22:52:20.032Z,100234.38
2024-03-24T22:54:50.722Z,100238.09
2024-03-24T22:57:21.456Z,100239.68
2024-03-24T22:59:52.190Z,100246.23
2024-03-24T23:02:22.935Z,100250.54
2024-03-24T23:04:53.687Z,100252.21
2024-03-24T23:07:24.415Z,100258.39
2024-03-24T23:09:55.112Z,100260.15
2024-03-24T23:12:25.880Z,100262.33
2024-03-24T23:14:56.672Z,100266.41
2024-03-24T23:17:27.346Z,100267.77
2024-03-24T23:19:58.022Z,100263.94
2024-03-24T23:22:28.841Z,100261.70
2024-03-24T23:24:59.464Z,100262.78
2024-03-24T23:27:30.203Z,100260.78
2024-03-24T23:30:01.014Z,100269.54
2024-03-24T23:32:31.822Z,100267.27
2024-03-24T23:35:02.249Z,100268.28
2024-03-24T23:37:32.987Z,100267.46
2024-03-24T23:40:03.674Z,100268.56
2024-03-24T23:42:34.401Z,100269.02
2024-03-24T23:45:05.129Z,100271.31
2024-03-24T23:47:35.866Z,100271.79
2024-03-24T23:50:06.564Z,100274.75
2024-03-24T23:52:37.301Z,100282.41
2024-03-24T23:55:08.006Z,100282.90
2024-03-24T23:57:38.760Z,100283.10
